createdAt,value
2019-06-08T00:00:34.775Z,81.23
2019-06-08T00:03:04.304Z,81.63
2019-06-08T00:05:33.558Z,81.80
2019-06-08T00:08:03.029Z,80.73
2019-06-08T00:10:32.170Z,78.71
2019-06-08T00:13:04.556Z,79.10
2019-06-08T00:15:33.764Z,78.63
2019-06-08T00:18:03.000Z,78.71
2019-06-08T00:20:32.127Z,78.09
2019-06-08T00:23:03.029Z,77.96
2019-06-08T00:25:32.144Z,77.69
2019-06-08T00:28:01.934Z,74.05
2019-06-08T00:30:31.077Z,74.32
2019-06-08T00:33:00.461Z,74.00
2019-06-08T00:35:30.060Z,74.33
2019-06-08T00:37:59.759Z,74.20
2019-06-08T00:40:28.784Z,73.97
2019-06-08T00:42:58.194Z,73.93
2019-06-08T00:45:27.631Z,73.35
2019-06-08T00:47:56.734Z,73.50
2019-06-08T00:50:25.761Z,73.98
2019-06-08T00:52:55.281Z,73.73
2019-06-08T00:55:25.726Z,73.49
2019-06-08T00:57:55.057Z,70.89
2019-06-08T01:00:24.615Z,70.38
2019-06-08T01:02:54.226Z,70.39
2019-06-08T01:05:23.995Z,70.99
2019-06-08T01:07:53.614Z,71.48
2019-06-08T01:10:23.505Z,71.06
2019-06-08T01:12:53.067Z,72.37
2019-06-08T01:15:29.300Z,72.07
2019-06-08T01:18:02.571Z,72.08
2019-06-08T01:20:25.617Z,72.33
2019-06-08T01:22:56.566Z,72.96
2019-06-08T01:25:25.915Z,72.91
2019-06-08T01:27:55.059Z,72.35
2019-06-08T01:30:24.612Z,73.74
2019-06-08T01:32:54.246Z,73.49
2019-06-08T01:35:24.810Z,73.23
2019-06-08T01:37:54.098Z,72.77
2019-06-08T01:40:25.291Z,73.45
2019-06-08T01:42:55.917Z,72.59
2019-06-08T01:45:32.897Z,72.11
2019-06-08T01:48:19.499Z,73.78
2019-06-08T01:50:38.204Z,73.55
2019-06-08T01:53:07.391Z,73.43
2019-06-08T01:55:36.881Z,74.87
2019-06-08T01:58:07.441Z,75.13
2019-06-08T02:00:41.075Z,75.13
2019-06-08T02:03:08.005Z,76.01
2019-06-08T02:05:37.425Z,76.23
2019-06-08T02:08:06.844Z,75.89
2019-06-08T02:10:36.100Z,76.67
2019-06-08T02:13:08.566Z,75.71
2019-06-08T02:15:36.639Z,75.32
2019-06-08T02:18:05.961Z,75.22
2019-06-08T02:20:35.361Z,72.56
2019-06-08T02:23:04.745Z,72.80
2019-06-08T02:25:33.855Z,73.84
2019-06-08T02:28:03.148Z,73.78
2019-06-08T02:30:36.512Z,72.83
2019-06-08T02:33:05.171Z,73.10
2019-06-08T02:35:35.387Z,73.38
2019-06-08T02:38:05.426Z,73.51
2019-06-08T02:40:35.167Z,72.82
2019-06-08T02:43:05.617Z,73.45
2019-06-08T02:45:36.942Z,73.57
2019-06-08T02:48:06.481Z,73.80
2019-06-08T02:50:54.561Z,73.68
2019-06-08T02:53:25.623Z,75.28
2019-06-08T02:55:55.821Z,71.88
2019-06-08T02:58:25.551Z,71.97
2019-06-08T03:00:55.964Z,71.33
2019-06-08T03:03:27.478Z,71.53
2019-06-08T03:05:59.786Z,71.86
2019-06-08T03:08:32.377Z,71.69
2019-06-08T03:11:03.375Z,71.28
2019-06-08T03:13:35.751Z,71.67
2019-06-08T03:16:05.161Z,70.37
2019-06-08T03:18:35.678Z,70.61
2019-06-08T03:21:05.577Z,71.06
2019-06-08T03:23:36.198Z,71.57
2019-06-08T03:26:05.537Z,71.08
2019-06-08T03:28:35.651Z,70.70
2019-06-08T03:31:05.734Z,70.77
2019-06-08T03:33:41.977Z,71.56
2019-06-08T03:36:05.921Z,71.97
2019-06-08T03:38:35.823Z,72.57
2019-06-08T03:41:05.251Z,72.43
2019-06-08T03:43:35.336Z,72.07
2019-06-08T03:46:05.178Z,70.75
2019-06-08T03:48:35.078Z,71.08
2019-06-08T03:51:04.857Z,71.63
2019-06-08T03:53:35.606Z,70.82
2019-06-08T03:56:04.673Z,69.87
2019-06-08T03:58:34.423Z,70.35
2019-06-08T04:01:04.796Z,70.75
2019-06-08T04:03:34.063Z,69.40
2019-06-08T04:06:03.113Z,69.46
2019-06-08T04:08:32.158Z,69.79
2019-06-08T04:11:01.351Z,70.11
2019-06-08T04:13:30.466Z,69.86
2019-06-08T04:15:59.640Z,69.66
2019-06-08T04:18:28.916Z,69.62
2019-06-08T04:20:58.065Z,70.52
2019-06-08T04:23:27.497Z,71.21
2019-06-08T04:25:56.610Z,71.47
2019-06-08T04:28:26.152Z,71.60
2019-06-08T04:30:55.209Z,71.98
2019-06-08T04:33:24.430Z,71.90
2019-06-08T04:35:53.526Z,69.97
2019-06-08T04:38:22.596Z,70.05
2019-06-08T04:40:51.623Z,71.14
2019-06-08T04:43:20.905Z,70.59
2019-06-08T04:45:50.089Z,71.47
2019-06-08T04:48:19.264Z,72.18
2019-06-08T04:50:49.887Z,70.91
2019-06-08T04:53:19.167Z,71.39
2019-06-08T04:55:49.351Z,71.18
2019-06-08T04:58:18.760Z,73.00
2019-06-08T05:00:50.232Z,71.98
2019-06-08T05:03:18.750Z,72.30
2019-06-08T05:05:49.913Z,73.21
2019-06-08T05:08:19.129Z,73.65
2019-06-08T05:10:49.688Z,73.30
2019-06-08T05:13:19.392Z,73.31
2019-06-08T05:15:50.238Z,72.81
2019-06-08T05:18:19.634Z,72.23
2019-06-08T05:20:51.183Z,71.51
2019-06-08T05:23:19.815Z,72.18
2019-06-08T05:25:49.370Z,72.15
2019-06-08T05:28:18.806Z,71.29
2019-06-08T05:30:47.940Z,72.50
2019-06-08T05:33:17.084Z,69.36
2019-06-08T05:35:47.551Z,69.33
2019-06-08T05:38:16.807Z,69.48
2019-06-08T05:40:45.893Z,68.63
2019-06-08T05:43:14.961Z,68.89
2019-06-08T05:45:45.694Z,67.45
2019-06-08T05:48:15.041Z,68.76
2019-06-08T05:50:56.809Z,69.28
2019-06-08T05:53:15.207Z,67.74
2019-06-08T05:55:44.238Z,68.80
2019-06-08T05:58:13.474Z,67.16
2019-06-08T06:00:42.491Z,67.88
2019-06-08T06:03:11.674Z,68.43
2019-06-08T06:05:42.414Z,68.45
2019-06-08T06:08:19.027Z,69.08
2019-06-08T06:10:42.949Z,68.57
2019-06-08T06:13:12.059Z,68.79
2019-06-08T06:15:41.127Z,69.47
2019-06-08T06:18:10.176Z,67.55
2019-06-08T06:20:39.346Z,67.41
2019-06-08T06:23:08.420Z,67.61
2019-06-08T06:25:37.915Z,66.45
2019-06-08T06:28:07.016Z,66.40
2019-06-08T06:30:36.219Z,65.71
2019-06-08T06:33:05.293Z,66.14
2019-06-08T06:35:34.350Z,67.39
2019-06-08T06:38:03.558Z,66.48
2019-06-08T06:40:32.725Z,66.85
2019-06-08T06:43:01.853Z,67.69
2019-06-08T06:45:30.925Z,68.26
2019-06-08T06:48:00.007Z,68.63
2019-06-08T06:50:29.260Z,68.52
2019-06-08T06:52:58.309Z,69.55
2019-06-08T06:55:27.609Z,68.20
2019-06-08T06:57:56.698Z,67.98
2019-06-08T07:00:30.996Z,67.86
2019-06-08T07:03:00.877Z,68.35
2019-06-08T07:05:30.019Z,69.71
2019-06-08T07:07:59.084Z,66.78
2019-06-08T07:10:28.198Z,63.96
2019-06-08T07:12:57.369Z,62.91
2019-06-08T07:15:27.973Z,63.17
2019-06-08T07:17:58.542Z,63.62
2019-06-08T07:20:27.867Z,63.52
2019-06-08T07:22:57.087Z,62.55
2019-06-08T07:25:26.155Z,60.15
2019-06-08T07:27:55.330Z,62.06
2019-06-08T07:30:24.528Z,58.93
2019-06-08T07:32:55.007Z,60.15
2019-06-08T07:35:24.163Z,61.88
2019-06-08T07:37:53.720Z,61.83
2019-06-08T07:40:23.047Z,60.34
2019-06-08T07:42:53.373Z,58.24
2019-06-08T07:45:23.027Z,58.54
2019-06-08T07:47:52.238Z,58.16
2019-06-08T07:50:21.405Z,60.72
2019-06-08T07:52:51.328Z,61.79
2019-06-08T07:55:21.316Z,62.17
2019-06-08T07:57:50.603Z,60.04
2019-06-08T08:00:21.012Z,59.24
2019-06-08T08:02:50.237Z,58.46
2019-06-08T08:05:19.426Z,60.92
2019-06-08T08:07:50.239Z,61.91
2019-06-08T08:10:19.643Z,61.91
2019-06-08T08:12:49.274Z,61.57
2019-06-08T08:15:18.797Z,58.41
2019-06-08T08:17:49.060Z,58.22
2019-06-08T08:20:18.856Z,57.25
2019-06-08T08:22:52.709Z,57.42
2019-06-08T08:25:18.855Z,57.33
2019-06-08T08:27:50.243Z,57.04
2019-06-08T08:30:20.347Z,56.68
2019-06-08T08:32:50.833Z,56.25
2019-06-08T08:35:20.378Z,57.50
2019-06-08T08:37:53.147Z,53.32
2019-06-08T08:40:20.402Z,54.31
2019-06-08T08:42:50.634Z,56.27
2019-06-08T08:45:20.383Z,60.31
2019-06-08T08:47:50.757Z,61.57
2019-06-08T08:50:20.311Z,59.65
2019-06-08T08:52:50.722Z,58.21
2019-06-08T08:55:20.541Z,61.98
2019-06-08T08:57:51.707Z,60.17
2019-06-08T09:00:21.255Z,60.78
2019-06-08T09:03:10.909Z,56.93
2019-06-08T09:05:21.334Z,56.13
2019-06-08T09:07:52.074Z,59.85
2019-06-08T09:10:21.631Z,62.44
2019-06-08T09:12:52.168Z,64.54
2019-06-08T09:15:21.610Z,66.37
2019-06-08T09:17:52.118Z,66.70
2019-06-08T09:20:21.742Z,67.91
2019-06-08T09:22:59.147Z,67.77
2019-06-08T09:25:21.798Z,67.72
2019-06-08T09:27:51.870Z,68.19
2019-06-08T09:30:22.058Z,68.38
2019-06-08T09:32:52.370Z,64.15
2019-06-08T09:35:21.854Z,61.87
2019-06-08T09:37:53.194Z,62.52
2019-06-08T09:40:22.278Z,61.36
2019-06-08T09:42:57.143Z,59.17
2019-06-08T09:45:22.749Z,59.55
2019-06-08T09:47:53.707Z,57.78
2019-06-08T09:50:23.305Z,58.89
2019-06-08T09:53:06.261Z,57.95
2019-06-08T09:55:23.784Z,57.53
2019-06-08T09:57:54.538Z,54.21
2019-06-08T10:00:26.394Z,55.34
2019-06-08T10:02:56.828Z,54.92
2019-06-08T10:05:27.576Z,54.47
2019-06-08T10:08:00.564Z,52.38
2019-06-08T10:10:28.065Z,50.99
2019-06-08T10:13:01.297Z,53.33
2019-06-08T10:15:28.181Z,55.84
2019-06-08T10:17:58.852Z,56.47
2019-06-08T10:20:28.827Z,58.09
2019-06-08T10:23:01.212Z,58.85
2019-06-08T10:25:30.691Z,58.47
2019-06-08T10:28:06.831Z,58.69
2019-06-08T10:30:30.626Z,60.13
2019-06-08T10:33:02.140Z,61.36
2019-06-08T10:35:30.571Z,60.82
2019-06-08T10:38:02.606Z,61.27
2019-06-08T10:40:30.503Z,61.16
2019-06-08T10:43:01.403Z,60.23
2019-06-08T10:45:30.415Z,62.15
2019-06-08T10:48:00.964Z,60.34
2019-06-08T10:50:30.380Z,60.36
2019-06-08T10:53:03.687Z,58.76
2019-06-08T10:55:30.647Z,62.11
2019-06-08T10:58:00.164Z,62.47
2019-06-08T11:00:29.376Z,61.85
2019-06-08T11:03:01.611Z,61.03
2019-06-08T11:05:29.356Z,62.23
2019-06-08T11:08:00.541Z,62.30
2019-06-08T11:10:29.710Z,63.77
2019-06-08T11:13:06.286Z,63.29
2019-06-08T11:15:30.113Z,63.65
2019-06-08T11:18:02.262Z,61.37
2019-06-08T11:20:30.631Z,59.38
2019-06-08T11:23:00.819Z,59.38
2019-06-08T11:25:30.753Z,60.42
2019-06-08T11:28:01.740Z,61.93
2019-06-08T11:30:30.925Z,60.90
2019-06-08T11:33:02.005Z,60.04
2019-06-08T11:35:31.161Z,58.47
2019-06-08T11:38:02.112Z,57.73
2019-06-08T11:40:31.313Z,58.11
2019-06-08T11:43:02.188Z,58.29
2019-06-08T11:45:31.405Z,57.00
2019-06-08T11:48:01.287Z,58.94
2019-06-08T11:50:41.487Z,59.29
2019-06-08T11:53:10.589Z,59.49
2019-06-08T11:55:38.588Z,58.93
2019-06-08T11:58:10.448Z,59.66
2019-06-08T12:01:00.977Z,59.16
2019-06-08T12:03:30.579Z,58.97
2019-06-08T12:05:59.529Z,57.18
2019-06-08T12:08:29.053Z,56.36
2019-06-08T12:11:01.966Z,56.99
2019-06-08T12:13:29.351Z,56.73
2019-06-08T12:15:58.950Z,58.69
2019-06-08T12:18:27.943Z,56.51
2019-06-08T12:20:58.320Z,54.55
2019-06-08T12:23:27.729Z,53.95
2019-06-08T12:25:56.862Z,55.41
2019-06-08T12:28:28.048Z,55.24
2019-06-08T12:30:57.115Z,55.14
2019-06-08T12:33:30.282Z,55.63
2019-06-08T12:35:57.923Z,57.01
2019-06-08T12:38:29.997Z,54.79
2019-06-08T12:40:58.612Z,54.24
2019-06-08T12:43:28.424Z,55.08
2019-06-08T12:45:58.074Z,54.65
2019-06-08T12:48:28.708Z,56.11
2019-06-08T12:50:57.998Z,55.23
2019-06-08T12:53:28.325Z,55.90
2019-06-08T12:55:57.997Z,56.04
2019-06-08T12:58:27.633Z,53.09
2019-06-08T13:00:57.953Z,54.74
2019-06-08T13:03:27.741Z,55.25
2019-06-08T13:05:57.871Z,53.08
2019-06-08T13:08:28.656Z,53.88
2019-06-08T13:11:00.428Z,54.44
2019-06-08T13:13:28.597Z,53.60
2019-06-08T13:15:58.071Z,55.63
2019-06-08T13:18:27.256Z,57.04
2019-06-08T13:20:58.998Z,56.39
2019-06-08T13:23:28.282Z,57.37
2019-06-08T13:25:57.444Z,55.64
2019-06-08T13:28:28.415Z,56.11
2019-06-08T13:30:58.163Z,56.39
2019-06-08T13:33:28.088Z,58.14
2019-06-08T13:35:57.973Z,58.48
2019-06-08T13:38:27.874Z,58.66
2019-06-08T13:40:58.769Z,59.04
2019-06-08T13:43:27.688Z,58.18
2019-06-08T13:45:58.963Z,56.89
2019-06-08T13:48:28.046Z,56.54
2019-06-08T13:50:59.215Z,56.70
2019-06-08T13:53:31.572Z,55.40
2019-06-08T13:55:58.580Z,56.79
2019-06-08T13:58:33.148Z,58.12
2019-06-08T14:00:59.842Z,58.77
2019-06-08T14:03:29.287Z,58.81
2019-06-08T14:05:58.360Z,58.03
2019-06-08T14:08:32.746Z,58.74
2019-06-08T14:11:00.824Z,57.37
2019-06-08T14:13:34.292Z,57.57
2019-06-08T14:15:59.933Z,56.65
2019-06-08T14:18:33.815Z,55.16
2019-06-08T14:20:59.782Z,55.16
2019-06-08T14:23:29.419Z,54.74
2019-06-08T14:26:00.189Z,55.09
2019-06-08T14:28:30.365Z,55.86
2019-06-08T14:30:59.598Z,56.82
2019-06-08T14:33:33.000Z,56.27
2019-06-08T14:35:59.644Z,55.81
2019-06-08T14:38:36.963Z,58.51
2019-06-08T14:40:59.474Z,57.40
2019-06-08T14:43:31.218Z,56.30
2019-06-08T14:45:59.546Z,56.04
2019-06-08T14:48:33.585Z,57.33
2019-06-08T14:50:59.933Z,57.07
2019-06-08T14:53:29.172Z,56.95
2019-06-08T14:56:05.765Z,58.38
2019-06-08T14:58:33.613Z,58.53
2019-06-08T15:00:59.854Z,58.56
2019-06-08T15:03:29.492Z,57.37
2019-06-08T15:05:58.845Z,56.07
2019-06-08T15:08:28.639Z,57.01
2019-06-08T15:10:58.940Z,56.95
2019-06-08T15:13:28.656Z,55.23
2019-06-08T15:16:00.715Z,56.26
2019-06-08T15:18:30.455Z,56.14
2019-06-08T15:21:00.549Z,54.34
2019-06-08T15:23:32.685Z,53.58
2019-06-08T15:26:00.301Z,52.71
2019-06-08T15:28:33.928Z,54.71
2019-06-08T15:31:00.321Z,54.48
2019-06-08T15:33:32.160Z,52.96
2019-06-08T15:36:00.467Z,52.93
2019-06-08T15:38:30.582Z,52.55
2019-06-08T15:41:00.460Z,53.11
2019-06-08T15:43:34.479Z,53.14
2019-06-08T15:46:00.195Z,52.04
2019-06-08T15:48:30.987Z,53.88
2019-06-08T15:51:00.083Z,53.99
2019-06-08T15:53:31.244Z,53.85
2019-06-08T15:56:00.157Z,53.41
2019-06-08T15:58:29.989Z,53.48
2019-06-08T16:01:02.361Z,54.16
2019-06-08T16:03:31.492Z,55.08
2019-06-08T16:06:01.856Z,55.38
2019-06-08T16:08:36.602Z,56.00
2019-06-08T16:11:04.151Z,56.60
2019-06-08T16:13:35.365Z,56.73
2019-06-08T16:16:04.821Z,57.67
2019-06-08T16:18:34.141Z,57.85
2019-06-08T16:21:03.429Z,58.22
2019-06-08T16:23:33.683Z,58.17
2019-06-08T16:26:04.346Z,58.31
2019-06-08T16:28:36.219Z,58.52
2019-06-08T16:31:05.772Z,58.49
2019-06-08T16:33:37.778Z,56.95
2019-06-08T16:36:07.036Z,57.00
2019-06-08T16:38:41.017Z,57.11
2019-06-08T16:41:11.643Z,57.88
2019-06-08T16:43:40.787Z,59.03
2019-06-08T16:46:11.854Z,58.69
2019-06-08T16:48:41.643Z,57.23
2019-06-08T16:51:10.673Z,57.12
2019-06-08T16:53:43.142Z,56.17
2019-06-08T16:56:12.196Z,55.68
2019-06-08T16:58:41.687Z,55.73
2019-06-08T17:01:10.726Z,55.36
2019-06-08T17:03:39.945Z,56.14
2019-06-08T17:06:09.248Z,57.16
2019-06-08T17:08:41.959Z,58.15
2019-06-08T17:11:09.471Z,58.41
2019-06-08T17:13:38.529Z,58.26
2019-06-08T17:16:07.574Z,58.80
2019-06-08T17:18:36.674Z,58.50
2019-06-08T17:21:06.122Z,59.04
2019-06-08T17:23:36.531Z,59.84
2019-06-08T17:26:05.850Z,61.42
2019-06-08T17:28:35.315Z,62.06
2019-06-08T17:31:04.469Z,61.25
2019-06-08T17:33:33.591Z,61.56
2019-06-08T17:36:02.767Z,61.43
2019-06-08T17:38:31.906Z,61.96
2019-06-08T17:41:01.241Z,62.18
2019-06-08T17:43:30.429Z,61.93
2019-06-08T17:46:03.003Z,61.95
2019-06-08T17:48:32.721Z,63.02
2019-06-08T17:51:02.210Z,68.88
2019-06-08T17:53:32.704Z,76.36
2019-06-08T17:56:01.760Z,81.83
2019-06-08T17:58:30.781Z,83.21
2019-06-08T18:00:59.852Z,84.22
2019-06-08T18:03:29.069Z,85.52
2019-06-08T18:05:58.290Z,87.21
2019-06-08T18:08:28.206Z,88.07
2019-06-08T18:10:57.693Z,86.44
2019-06-08T18:13:27.267Z,86.80
2019-06-08T18:15:57.620Z,84.74
2019-06-08T18:18:28.276Z,82.39
2019-06-08T18:20:58.094Z,79.32
2019-06-08T18:23:27.877Z,76.41
2019-06-08T18:25:58.180Z,77.22
2019-06-08T18:28:28.195Z,76.75
2019-06-08T18:30:58.208Z,77.86
2019-06-08T18:33:27.983Z,78.00
2019-06-08T18:35:57.813Z,77.33
2019-06-08T18:38:27.424Z,75.76
2019-06-08T18:40:57.519Z,76.83
2019-06-08T18:43:27.941Z,77.16
2019-06-08T18:45:57.817Z,76.74
2019-06-08T18:48:28.196Z,75.93
2019-06-08T18:50:57.500Z,76.95
2019-06-08T18:53:27.225Z,76.42
2019-06-08T18:55:58.133Z,75.77
2019-06-08T18:58:27.962Z,75.66
2019-06-08T19:00:57.642Z,75.42
2019-06-08T19:03:28.270Z,74.25
2019-06-08T19:05:58.654Z,73.45
2019-06-08T19:08:28.947Z,74.06
2019-06-08T19:10:58.060Z,73.35
2019-06-08T19:13:27.240Z,73.21
2019-06-08T19:15:59.540Z,72.90
2019-06-08T19:18:29.256Z,73.21
2019-06-08T19:20:57.815Z,73.39
2019-06-08T19:23:28.007Z,73.55
2019-06-08T19:25:57.840Z,73.42
2019-06-08T19:28:35.923Z,73.28
2019-06-08T19:30:58.708Z,73.00
2019-06-08T19:33:28.159Z,72.69
2019-06-08T19:35:58.350Z,73.36
2019-06-08T19:38:28.515Z,73.66
2019-06-08T19:40:59.866Z,74.28
2019-06-08T19:43:28.745Z,74.71
2019-06-08T19:45:58.470Z,75.21
2019-06-08T19:48:31.115Z,75.38
2019-06-08T19:50:58.657Z,74.99
2019-06-08T19:53:28.628Z,75.97
2019-06-08T19:55:57.838Z,76.27
2019-06-08T19:58:28.300Z,77.15
2019-06-08T20:00:58.813Z,77.06
2019-06-08T20:03:28.434Z,77.72
2019-06-08T20:05:57.518Z,78.10
2019-06-08T20:08:29.133Z,78.27
2019-06-08T20:10:57.597Z,78.24
2019-06-08T20:13:26.580Z,78.82
2019-06-08T20:16:01.276Z,78.68
2019-06-08T20:18:27.949Z,79.06
2019-06-08T20:20:58.633Z,78.79
2019-06-08T20:23:27.969Z,78.69
2019-06-08T20:25:57.402Z,79.03
2019-06-08T20:28:28.223Z,79.69
2019-06-08T20:30:58.013Z,79.84
2019-06-08T20:33:27.378Z,80.20
2019-06-08T20:35:58.544Z,80.36
2019-06-08T20:38:37.821Z,80.82
2019-06-08T20:40:58.120Z,81.43
2019-06-08T20:43:27.264Z,82.11
2019-06-08T20:45:57.487Z,82.85
2019-06-08T20:48:27.564Z,83.53
2019-06-08T20:50:57.235Z,83.96
2019-06-08T20:53:28.345Z,84.49
2019-06-08T20:55:57.416Z,85.06
2019-06-08T20:58:28.321Z,85.52
2019-06-08T21:00:58.156Z,86.08
2019-06-08T21:03:28.000Z,86.37
2019-06-08T21:05:58.192Z,87.18
2019-06-08T21:08:28.292Z,87.87
2019-06-08T21:10:58.671Z,88.68
2019-06-08T21:13:28.635Z,89.30
2019-06-08T21:16:00.535Z,89.94
2019-06-08T21:18:28.491Z,90.61
2019-06-08T21:20:58.046Z,90.96
2019-06-08T21:23:28.802Z,91.26
2019-06-08T21:26:00.154Z,91.75
2019-06-08T21:28:29.400Z,91.90
2019-06-08T21:31:02.142Z,92.38
2019-06-08T21:33:29.344Z,92.59
2019-06-08T21:36:04.627Z,92.68
2019-06-08T21:38:29.169Z,92.72
2019-06-08T21:41:02.410Z,92.53
2019-06-08T21:43:29.401Z,92.99
2019-06-08T21:46:00.864Z,92.64
2019-06-08T21:48:29.279Z,92.60
2019-06-08T21:51:01.119Z,92.92
2019-06-08T21:53:29.251Z,92.79
2019-06-08T21:55:58.455Z,93.21
2019-06-08T21:58:27.699Z,93.67
2019-06-08T22:00:59.731Z,93.84
2019-06-08T22:03:28.701Z,93.29
2019-06-08T22:05:58.877Z,93.35
2019-06-08T22:08:28.838Z,93.53
2019-06-08T22:11:00.382Z,93.59
2019-06-08T22:13:30.739Z,93.76
2019-06-08T22:16:02.071Z,94.05
2019-06-08T22:18:31.012Z,94.15
2019-06-08T22:21:01.209Z,93.90
2019-06-08T22:23:30.584Z,93.69
2019-06-08T22:26:01.051Z,93.89
2019-06-08T22:28:30.505Z,93.26
2019-06-08T22:31:01.597Z,93.38
2019-06-08T22:33:32.261Z,92.35
2019-06-08T22:36:01.272Z,92.32
2019-06-08T22:38:30.461Z,92.59
2019-06-08T22:41:00.694Z,92.69
2019-06-08T22:43:30.394Z,93.33
2019-06-08T22:46:01.689Z,93.60
2019-06-08T22:48:30.270Z,93.54
2019-06-08T22:51:01.413Z,94.16
2019-06-08T22:53:30.186Z,94.85
2019-06-08T22:56:01.090Z,94.98
2019-06-08T22:58:29.960Z,95.29
2019-06-08T23:01:01.341Z,95.24
2019-06-08T23:03:29.896Z,95.53
2019-06-08T23:06:00.164Z,95.38
2019-06-08T23:08:29.888Z,95.88
2019-06-08T23:11:02.037Z,95.93
2019-06-08T23:13:31.920Z,95.74
2019-06-08T23:16:03.814Z,95.71
2019-06-08T23:18:34.217Z,96.08
2019-06-08T23:21:04.260Z,96.74
2019-06-08T23:23:33.814Z,96.91
2019-06-08T23:26:05.188Z,97.35
2019-06-08T23:28:33.791Z,97.64
2019-06-08T23:31:13.467Z,96.75
2019-06-08T23:33:33.704Z,97.36
2019-06-08T23:36:39.595Z,96.98
2019-06-08T23:38:33.525Z,96.37
2019-06-08T23:41:03.640Z,96.21
2019-06-08T23:43:32.965Z,96.45
2019-06-08T23:46:02.739Z,96.63
2019-06-08T23:48:32.970Z,97.57
2019-06-08T23:51:02.345Z,98.01
2019-06-08T23:53:31.784Z,98.23
2019-06-08T23:56:02.301Z,98.23
2019-06-08T23:58:32.056Z,98.11
